sensor_id;sensor_type;location;lat;lon;timestamp;P1;durP1;ratioP1;P2;durP2;ratioP2
64641;SDS011;59936;51.490;5.436;2023-10-08T00:01:17;9.40;;;5.10;;
64641;SDS011;59936;51.490;5.436;2023-10-08T00:05:48;16.20;;;5.10;;
64641;SDS011;59936;51.490;5.436;2023-10-08T00:08:18;10.40;;;5.60;;
64641;SDS011;59936;51.490;5.436;2023-10-08T00:10:46;8.60;;;5.10;;
64641;SDS011;59936;51.490;5.436;2023-10-08T00:13:15;9.60;;;5.10;;
64641;SDS011;59936;51.490;5.436;2023-10-08T00:15:44;11.60;;;6.00;;
64641;SDS011;59936;51.490;5.436;2023-10-08T00:18:13;11.20;;;5.70;;
64641;SDS011;59936;51.490;5.436;2023-10-08T00:20:41;8.80;;;5.40;;
64641;SDS011;59936;51.490;5.436;2023-10-08T00:23:10;9.40;;;5.70;;
64641;SDS011;59936;51.490;5.436;2023-10-08T00:25:39;13.30;;;5.60;;
64641;SDS011;59936;51.490;5.436;2023-10-08T00:28:08;9.80;;;5.60;;
64641;SDS011;59936;51.490;5.436;2023-10-08T00:30:39;8.00;;;5.00;;
64641;SDS011;59936;51.490;5.436;2023-10-08T00:33:08;8.90;;;5.40;;
64641;SDS011;59936;51.490;5.436;2023-10-08T00:35:38;9.70;;;5.60;;
64641;SDS011;59936;51.490;5.436;2023-10-08T00:38:10;8.40;;;6.20;;
64641;SDS011;59936;51.490;5.436;2023-10-08T00:40:39;8.90;;;5.80;;
64641;SDS011;59936;51.490;5.436;2023-10-08T00:43:08;9.40;;;5.70;;
64641;SDS011;59936;51.490;5.436;2023-10-08T00:45:37;12.70;;;6.00;;
64641;SDS011;59936;51.490;5.436;2023-10-08T00:48:06;9.50;;;5.80;;
64641;SDS011;59936;51.490;5.436;2023-10-08T00:50:35;8.50;;;5.40;;
64641;SDS011;59936;51.490;5.436;2023-10-08T00:53:04;14.40;;;6.00;;
64641;SDS011;59936;51.490;5.436;2023-10-08T00:55:32;7.40;;;5.20;;
64641;SDS011;59936;51.490;5.436;2023-10-08T00:58:01;11.10;;;5.80;;
64641;SDS011;59936;51.490;5.436;2023-10-08T01:00:30;8.80;;;6.50;;
64641;SDS011;59936;51.490;5.436;2023-10-08T01:03:00;12.20;;;6.30;;
64641;SDS011;59936;51.490;5.436;2023-10-08T01:05:29;9.30;;;5.40;;
64641;SDS011;59936;51.490;5.436;2023-10-08T01:07:57;9.90;;;5.70;;
64641;SDS011;59936;51.490;5.436;2023-10-08T01:10:26;11.50;;;5.40;;
64641;SDS011;59936;51.490;5.436;2023-10-08T01:12:54;10.90;;;6.30;;
64641;SDS011;59936;51.490;5.436;2023-10-08T01:15:23;12.00;;;5.70;;
64641;SDS011;59936;51.490;5.436;2023-10-08T01:17:52;8.70;;;5.80;;
64641;SDS011;59936;51.490;5.436;2023-10-08T01:20:20;10.70;;;5.80;;
64641;SDS011;59936;51.490;5.436;2023-10-08T01:22:49;12.00;;;5.80;;
64641;SDS011;59936;51.490;5.436;2023-10-08T01:25:17;11.50;;;5.50;;
64641;SDS011;59936;51.490;5.436;2023-10-08T01:27:46;13.80;;;6.10;;
64641;SDS011;59936;51.490;5.436;2023-10-08T01:30:14;9.20;;;6.20;;
64641;SDS011;59936;51.490;5.436;2023-10-08T01:32:43;12.80;;;6.00;;
64641;SDS011;59936;51.490;5.436;2023-10-08T01:35:12;10.90;;;5.70;;
64641;SDS011;59936;51.490;5.436;2023-10-08T01:37:41;10.30;;;5.80;;
64641;SDS011;59936;51.490;5.436;2023-10-08T01:40:10;13.10;;;6.00;;
64641;SDS011;59936;51.490;5.436;2023-10-08T01:42:39;11.70;;;6.20;;
64641;SDS011;59936;51.490;5.436;2023-10-08T01:45:07;11.80;;;5.50;;
64641;SDS011;59936;51.490;5.436;2023-10-08T01:47:37;7.70;;;5.10;;
64641;SDS011;59936;51.490;5.436;2023-10-08T01:50:05;13.70;;;5.80;;
64641;SDS011;59936;51.490;5.436;2023-10-08T01:52:34;8.30;;;5.60;;
64641;SDS011;59936;51.490;5.436;2023-10-08T01:55:03;8.90;;;5.50;;
64641;SDS011;59936;51.490;5.436;2023-10-08T01:57:32;9.10;;;5.30;;
64641;SDS011;59936;51.490;5.436;2023-10-08T02:00:01;7.60;;;5.40;;
64641;SDS011;59936;51.490;5.436;2023-10-08T02:02:29;10.00;;;5.70;;
64641;SDS011;59936;51.490;5.436;2023-10-08T02:04:58;9.60;;;5.40;;
64641;SDS011;59936;51.490;5.436;2023-10-08T02:07:27;8.60;;;5.60;;
64641;SDS011;59936;51.490;5.436;2023-10-08T02:09:55;14.20;;;6.20;;
64641;SDS011;59936;51.490;5.436;2023-10-08T02:12:24;14.30;;;6.70;;
64641;SDS011;59936;51.490;5.436;2023-10-08T02:14:52;11.60;;;5.80;;
64641;SDS011;59936;51.490;5.436;2023-10-08T02:17:21;12.80;;;6.20;;
64641;SDS011;59936;51.490;5.436;2023-10-08T02:19:50;9.70;;;5.70;;
64641;SDS011;59936;51.490;5.436;2023-10-08T02:22:18;8.40;;;6.40;;
64641;SDS011;59936;51.490;5.436;2023-10-08T02:24:47;11.30;;;5.40;;
64641;SDS011;59936;51.490;5.436;2023-10-08T02:27:15;12.70;;;5.70;;
64641;SDS011;59936;51.490;5.436;2023-10-08T02:29:44;13.80;;;6.20;;
64641;SDS011;59936;51.490;5.436;2023-10-08T02:32:13;11.60;;;5.70;;
64641;SDS011;59936;51.490;5.436;2023-10-08T02:34:42;14.90;;;6.00;;
64641;SDS011;59936;51.490;5.436;2023-10-08T02:37:10;12.80;;;5.80;;
64641;SDS011;59936;51.490;5.436;2023-10-08T02:39:39;11.50;;;6.00;;
64641;SDS011;59936;51.490;5.436;2023-10-08T02:42:07;11.20;;;6.20;;
64641;SDS011;59936;51.490;5.436;2023-10-08T02:44:36;9.80;;;5.90;;
64641;SDS011;59936;51.490;5.436;2023-10-08T02:47:05;8.40;;;5.80;;
64641;SDS011;59936;51.490;5.436;2023-10-08T02:49:34;13.30;;;5.70;;
64641;SDS011;59936;51.490;5.436;2023-10-08T02:52:02;17.20;;;6.20;;
64641;SDS011;59936;51.490;5.436;2023-10-08T02:54:31;10.20;;;5.70;;
64641;SDS011;59936;51.490;5.436;2023-10-08T02:56:59;10.20;;;4.90;;
64641;SDS011;59936;51.490;5.436;2023-10-08T02:59:28;10.10;;;5.80;;
64641;SDS011;59936;51.490;5.436;2023-10-08T03:02:00;9.20;;;5.70;;
64641;SDS011;59936;51.490;5.436;2023-10-08T03:04:29;10.50;;;5.50;;
64641;SDS011;59936;51.490;5.436;2023-10-08T03:06:57;11.50;;;5.70;;
64641;SDS011;59936;51.490;5.436;2023-10-08T03:09:26;9.40;;;5.30;;
64641;SDS011;59936;51.490;5.436;2023-10-08T03:11:54;10.80;;;5.80;;
64641;SDS011;59936;51.490;5.436;2023-10-08T03:14:23;15.50;;;5.80;;
64641;SDS011;59936;51.490;5.436;2023-10-08T03:16:53;11.10;;;6.20;;
64641;SDS011;59936;51.490;5.436;2023-10-08T03:19:22;10.30;;;5.70;;
64641;SDS011;59936;51.490;5.436;2023-10-08T03:21:51;11.60;;;5.50;;
64641;SDS011;59936;51.490;5.436;2023-10-08T03:24:19;10.00;;;6.00;;
64641;SDS011;59936;51.490;5.436;2023-10-08T03:26:48;9.10;;;5.60;;
64641;SDS011;59936;51.490;5.436;2023-10-08T03:29:17;12.10;;;5.90;;
64641;SDS011;59936;51.490;5.436;2023-10-08T03:31:45;10.50;;;5.70;;
64641;SDS011;59936;51.490;5.436;2023-10-08T03:34:14;12.00;;;6.10;;
64641;SDS011;59936;51.490;5.436;2023-10-08T03:36:45;10.80;;;5.80;;
64641;SDS011;59936;51.490;5.436;2023-10-08T03:39:16;11.80;;;5.70;;
64641;SDS011;59936;51.490;5.436;2023-10-08T03:41:46;12.80;;;6.60;;
64641;SDS011;59936;51.490;5.436;2023-10-08T03:44:14;12.80;;;5.90;;
64641;SDS011;59936;51.490;5.436;2023-10-08T03:46:43;11.00;;;6.20;;
64641;SDS011;59936;51.490;5.436;2023-10-08T03:49:12;12.80;;;6.00;;
64641;SDS011;59936;51.490;5.436;2023-10-08T03:51:44;12.20;;;5.70;;
64641;SDS011;59936;51.490;5.436;2023-10-08T03:54:12;10.70;;;6.10;;
64641;SDS011;59936;51.490;5.436;2023-10-08T03:56:44;11.90;;;5.60;;
64641;SDS011;59936;51.490;5.436;2023-10-08T03:59:14;13.20;;;6.00;;
64641;SDS011;59936;51.490;5.436;2023-10-08T04:01:43;9.80;;;5.80;;
64641;SDS011;59936;51.490;5.436;2023-10-08T04:04:12;9.10;;;6.20;;
64641;SDS011;59936;51.490;5.436;2023-10-08T04:06:41;14.10;;;5.90;;
64641;SDS011;59936;51.490;5.436;2023-10-08T04:09:10;12.00;;;6.00;;
64641;SDS011;59936;51.490;5.436;2023-10-08T04:11:39;11.80;;;5.60;;
64641;SDS011;59936;51.490;5.436;2023-10-08T04:14:08;12.50;;;5.70;;
64641;SDS011;59936;51.490;5.436;2023-10-08T04:16:36;9.40;;;5.00;;
64641;SDS011;59936;51.490;5.436;2023-10-08T04:19:05;13.80;;;5.50;;
64641;SDS011;59936;51.490;5.436;2023-10-08T04:21:33;10.80;;;5.90;;
64641;SDS011;59936;51.490;5.436;2023-10-08T04:24:02;13.10;;;5.90;;
64641;SDS011;59936;51.490;5.436;2023-10-08T04:26:31;11.90;;;5.40;;
64641;SDS011;59936;51.490;5.436;2023-10-08T04:29:01;9.00;;;5.70;;
64641;SDS011;59936;51.490;5.436;2023-10-08T04:31:30;10.20;;;5.50;;
64641;SDS011;59936;51.490;5.436;2023-10-08T04:34:00;14.70;;;7.00;;
64641;SDS011;59936;51.490;5.436;2023-10-08T04:36:28;12.50;;;5.80;;
64641;SDS011;59936;51.490;5.436;2023-10-08T04:38:57;10.60;;;5.30;;
64641;SDS011;59936;51.490;5.436;2023-10-08T04:41:25;7.70;;;5.00;;
64641;SDS011;59936;51.490;5.436;2023-10-08T04:43:54;10.50;;;5.50;;
64641;SDS011;59936;51.490;5.436;2023-10-08T04:46:22;13.40;;;5.70;;
64641;SDS011;59936;51.490;5.436;2023-10-08T04:48:51;11.70;;;5.90;;
64641;SDS011;59936;51.490;5.436;2023-10-08T04:51:19;11.40;;;6.70;;
64641;SDS011;59936;51.490;5.436;2023-10-08T04:53:48;18.20;;;5.30;;
64641;SDS011;59936;51.490;5.436;2023-10-08T04:56:17;11.30;;;5.80;;
64641;SDS011;59936;51.490;5.436;2023-10-08T04:58:46;14.60;;;5.70;;
64641;SDS011;59936;51.490;5.436;2023-10-08T05:01:16;13.60;;;5.90;;
64641;SDS011;59936;51.490;5.436;2023-10-08T05:03:50;10.70;;;6.40;;
64641;SDS011;59936;51.490;5.436;2023-10-08T05:06:22;12.60;;;5.80;;
64641;SDS011;59936;51.490;5.436;2023-10-08T05:08:52;13.80;;;6.20;;
64641;SDS011;59936;51.490;5.436;2023-10-08T05:11:20;17.70;;;7.10;;
64641;SDS011;59936;51.490;5.436;2023-10-08T05:13:49;18.50;;;6.60;;
64641;SDS011;59936;51.490;5.436;2023-10-08T05:16:17;16.10;;;6.20;;
64641;SDS011;59936;51.490;5.436;2023-10-08T05:18:46;17.60;;;6.10;;
64641;SDS011;59936;51.490;5.436;2023-10-08T05:21:14;11.10;;;6.30;;
64641;SDS011;59936;51.490;5.436;2023-10-08T05:23:43;9.70;;;5.70;;
64641;SDS011;59936;51.490;5.436;2023-10-08T05:26:12;16.80;;;6.50;;
64641;SDS011;59936;51.490;5.436;2023-10-08T05:28:40;18.70;;;6.70;;
64641;SDS011;59936;51.490;5.436;2023-10-08T05:31:09;14.70;;;6.30;;
64641;SDS011;59936;51.490;5.436;2023-10-08T05:33:37;11.10;;;6.00;;
64641;SDS011;59936;51.490;5.436;2023-10-08T05:36:06;9.50;;;6.10;;
64641;SDS011;59936;51.490;5.436;2023-10-08T05:38:34;14.40;;;7.20;;
64641;SDS011;59936;51.490;5.436;2023-10-08T05:41:03;10.40;;;5.90;;
64641;SDS011;59936;51.490;5.436;2023-10-08T05:43:33;17.50;;;6.80;;
64641;SDS011;59936;51.490;5.436;2023-10-08T05:46:08;10.60;;;5.90;;
64641;SDS011;59936;51.490;5.436;2023-10-08T05:48:44;13.80;;;6.30;;
64641;SDS011;59936;51.490;5.436;2023-10-08T05:51:12;14.90;;;7.30;;
64641;SDS011;59936;51.490;5.436;2023-10-08T05:53:43;9.70;;;6.50;;
64641;SDS011;59936;51.490;5.436;2023-10-08T05:56:11;18.70;;;6.90;;
64641;SDS011;59936;51.490;5.436;2023-10-08T05:58:40;12.00;;;6.90;;
64641;SDS011;59936;51.490;5.436;2023-10-08T06:01:08;14.10;;;6.90;;
64641;SDS011;59936;51.490;5.436;2023-10-08T06:03:37;16.70;;;7.50;;
64641;SDS011;59936;51.490;5.436;2023-10-08T06:06:06;15.90;;;6.60;;
64641;SDS011;59936;51.490;5.436;2023-10-08T06:08:40;9.30;;;6.40;;
64641;SDS011;59936;51.490;5.436;2023-10-08T06:11:09;9.20;;;6.30;;
64641;SDS011;59936;51.490;5.436;2023-10-08T06:13:38;13.00;;;6.10;;
64641;SDS011;59936;51.490;5.436;2023-10-08T06:16:06;10.10;;;6.60;;
64641;SDS011;59936;51.490;5.436;2023-10-08T06:18:35;14.10;;;6.90;;
64641;SDS011;59936;51.490;5.436;2023-10-08T06:21:04;10.90;;;6.30;;
64641;SDS011;59936;51.490;5.436;2023-10-08T06:23:35;11.20;;;6.40;;
64641;SDS011;59936;51.490;5.436;2023-10-08T06:26:07;13.10;;;6.70;;
64641;SDS011;59936;51.490;5.436;2023-10-08T06:28:36;12.60;;;7.80;;
64641;SDS011;59936;51.490;5.436;2023-10-08T06:31:07;12.70;;;6.90;;
64641;SDS011;59936;51.490;5.436;2023-10-08T06:33:36;15.00;;;7.30;;
64641;SDS011;59936;51.490;5.436;2023-10-08T06:36:07;16.40;;;8.00;;
64641;SDS011;59936;51.490;5.436;2023-10-08T06:38:36;12.10;;;6.90;;
64641;SDS011;59936;51.490;5.436;2023-10-08T06:41:06;12.20;;;7.30;;
64641;SDS011;59936;51.490;5.436;2023-10-08T06:43:43;8.40;;;6.40;;
64641;SDS011;59936;51.490;5.436;2023-10-08T06:46:13;17.25;;;7.95;;
64641;SDS011;59936;51.490;5.436;2023-10-08T06:48:42;12.40;;;7.50;;
64641;SDS011;59936;51.490;5.436;2023-10-08T06:51:11;15.90;;;8.10;;
64641;SDS011;59936;51.490;5.436;2023-10-08T06:53:41;13.50;;;7.50;;
64641;SDS011;59936;51.490;5.436;2023-10-08T06:56:12;16.40;;;7.90;;
64641;SDS011;59936;51.490;5.436;2023-10-08T06:58:43;17.20;;;8.30;;
64641;SDS011;59936;51.490;5.436;2023-10-08T07:01:11;16.10;;;8.00;;
64641;SDS011;59936;51.490;5.436;2023-10-08T07:03:40;18.00;;;8.50;;
64641;SDS011;59936;51.490;5.436;2023-10-08T07:06:09;13.30;;;7.30;;
64641;SDS011;59936;51.490;5.436;2023-10-08T07:08:37;11.10;;;6.70;;
64641;SDS011;59936;51.490;5.436;2023-10-08T07:11:06;15.20;;;7.20;;
64641;SDS011;59936;51.490;5.436;2023-10-08T07:13:34;12.00;;;7.20;;
64641;SDS011;59936;51.490;5.436;2023-10-08T07:16:03;11.70;;;6.70;;
64641;SDS011;59936;51.490;5.436;2023-10-08T07:18:31;15.20;;;7.70;;
64641;SDS011;59936;51.490;5.436;2023-10-08T07:21:00;13.50;;;7.30;;
64641;SDS011;59936;51.490;5.436;2023-10-08T07:23:31;12.20;;;7.40;;
64641;SDS011;59936;51.490;5.436;2023-10-08T07:26:03;16.60;;;7.80;;
64641;SDS011;59936;51.490;5.436;2023-10-08T07:28:32;13.20;;;7.30;;
64641;SDS011;59936;51.490;5.436;2023-10-08T07:31:00;11.30;;;7.30;;
64641;SDS011;59936;51.490;5.436;2023-10-08T07:33:29;13.20;;;7.80;;
64641;SDS011;59936;51.490;5.436;2023-10-08T07:35:57;13.30;;;7.70;;
64641;SDS011;59936;51.490;5.436;2023-10-08T07:38:26;13.90;;;8.50;;
64641;SDS011;59936;51.490;5.436;2023-10-08T07:40:55;12.50;;;8.60;;
64641;SDS011;59936;51.490;5.436;2023-10-08T07:43:24;13.70;;;8.00;;
64641;SDS011;59936;51.490;5.436;2023-10-08T07:45:53;17.10;;;8.40;;
64641;SDS011;59936;51.490;5.436;2023-10-08T07:48:21;11.30;;;8.30;;
64641;SDS011;59936;51.490;5.436;2023-10-08T07:50:50;16.50;;;8.00;;
64641;SDS011;59936;51.490;5.436;2023-10-08T07:53:18;13.90;;;8.40;;
64641;SDS011;59936;51.490;5.436;2023-10-08T07:55:47;17.60;;;8.60;;
64641;SDS011;59936;51.490;5.436;2023-10-08T07:58:16;18.70;;;8.80;;
64641;SDS011;59936;51.490;5.436;2023-10-08T08:00:45;17.40;;;8.30;;
64641;SDS011;59936;51.490;5.436;2023-10-08T08:03:14;15.50;;;7.80;;
64641;SDS011;59936;51.490;5.436;2023-10-08T08:05:42;17.60;;;8.50;;
64641;SDS011;59936;51.490;5.436;2023-10-08T08:08:11;17.30;;;8.50;;
64641;SDS011;59936;51.490;5.436;2023-10-08T08:10:39;17.70;;;9.20;;
64641;SDS011;59936;51.490;5.436;2023-10-08T08:13:08;17.10;;;8.60;;
64641;SDS011;59936;51.490;5.436;2023-10-08T08:15:36;21.00;;;9.30;;
64641;SDS011;59936;51.490;5.436;2023-10-08T08:18:05;17.60;;;8.50;;
64641;SDS011;59936;51.490;5.436;2023-10-08T08:20:37;15.90;;;8.30;;
64641;SDS011;59936;51.490;5.436;2023-10-08T08:23:05;15.20;;;9.30;;
64641;SDS011;59936;51.490;5.436;2023-10-08T08:25:41;16.70;;;9.00;;
64641;SDS011;59936;51.490;5.436;2023-10-08T08:28:10;15.30;;;8.50;;
64641;SDS011;59936;51.490;5.436;2023-10-08T08:30:40;16.50;;;8.70;;
64641;SDS011;59936;51.490;5.436;2023-10-08T08:33:08;13.70;;;8.50;;
64641;SDS011;59936;51.490;5.436;2023-10-08T08:35:37;18.10;;;9.60;;
64641;SDS011;59936;51.490;5.436;2023-10-08T08:38:05;15.80;;;9.00;;
64641;SDS011;59936;51.490;5.436;2023-10-08T08:40:34;21.40;;;10.80;;
64641;SDS011;59936;51.490;5.436;2023-10-08T08:43:03;21.80;;;10.70;;
64641;SDS011;59936;51.490;5.436;2023-10-08T08:45:34;18.60;;;9.80;;
64641;SDS011;59936;51.490;5.436;2023-10-08T08:48:04;20.40;;;10.70;;
64641;SDS011;59936;51.490;5.436;2023-10-08T08:50:34;19.70;;;11.10;;
64641;SDS011;59936;51.490;5.436;2023-10-08T08:53:05;22.30;;;10.90;;
64641;SDS011;59936;51.490;5.436;2023-10-08T08:55:33;23.50;;;12.10;;
64641;SDS011;59936;51.490;5.436;2023-10-08T08:58:02;16.50;;;10.70;;
64641;SDS011;59936;51.490;5.436;2023-10-08T09:00:31;19.40;;;10.70;;
64641;SDS011;59936;51.490;5.436;2023-10-08T09:03:00;22.30;;;12.60;;
64641;SDS011;59936;51.490;5.436;2023-10-08T09:05:29;20.50;;;12.20;;
64641;SDS011;59936;51.490;5.436;2023-10-08T09:07:59;24.90;;;13.10;;
64641;SDS011;59936;51.490;5.436;2023-10-08T09:10:34;21.50;;;12.20;;
64641;SDS011;59936;51.490;5.436;2023-10-08T09:15:36;26.00;;;13.60;;
64641;SDS011;59936;51.490;5.436;2023-10-08T09:18:04;29.90;;;13.10;;
64641;SDS011;59936;51.490;5.436;2023-10-08T09:20:37;28.40;;;13.30;;
64641;SDS011;59936;51.490;5.436;2023-10-08T09:23:10;23.70;;;14.00;;
64641;SDS011;59936;51.490;5.436;2023-10-08T09:25:44;27.50;;;13.50;;
64641;SDS011;59936;51.490;5.436;2023-10-08T09:28:14;28.80;;;14.20;;
64641;SDS011;59936;51.490;5.436;2023-10-08T09:30:43;25.10;;;13.40;;
64641;SDS011;59936;51.490;5.436;2023-10-08T09:33:12;27.30;;;13.50;;
64641;SDS011;59936;51.490;5.436;2023-10-08T09:35:42;25.50;;;13.00;;
64641;SDS011;59936;51.490;5.436;2023-10-08T09:38:11;30.20;;;14.00;;
64641;SDS011;59936;51.490;5.436;2023-10-08T09:40:40;22.80;;;12.60;;
64641;SDS011;59936;51.490;5.436;2023-10-08T09:43:10;26.80;;;13.90;;
64641;SDS011;59936;51.490;5.436;2023-10-08T09:45:40;21.90;;;13.00;;
64641;SDS011;59936;51.490;5.436;2023-10-08T09:48:15;29.10;;;13.50;;
64641;SDS011;59936;51.490;5.436;2023-10-08T09:50:48;30.85;;;14.50;;
64641;SDS011;59936;51.490;5.436;2023-10-08T09:53:25;24.40;;;13.20;;
64641;SDS011;59936;51.490;5.436;2023-10-08T09:56:20;22.90;;;13.00;;
64641;SDS011;59936;51.490;5.436;2023-10-08T09:58:48;26.80;;;13.40;;
64641;SDS011;59936;51.490;5.436;2023-10-08T10:01:18;32.00;;;15.40;;
64641;SDS011;59936;51.490;5.436;2023-10-08T10:03:48;24.30;;;14.00;;
64641;SDS011;59936;51.490;5.436;2023-10-08T10:06:18;28.40;;;15.50;;
64641;SDS011;59936;51.490;5.436;2023-10-08T10:08:47;22.65;;;14.55;;
64641;SDS011;59936;51.490;5.436;2023-10-08T10:11:16;26.80;;;14.80;;
64641;SDS011;59936;51.490;5.436;2023-10-08T10:13:45;27.20;;;14.70;;
64641;SDS011;59936;51.490;5.436;2023-10-08T10:16:21;24.80;;;15.20;;
64641;SDS011;59936;51.490;5.436;2023-10-08T10:18:50;29.20;;;14.50;;
64641;SDS011;59936;51.490;5.436;2023-10-08T10:23:47;26.60;;;14.50;;
64641;SDS011;59936;51.490;5.436;2023-10-08T10:26:35;26.40;;;15.00;;
64641;SDS011;59936;51.490;5.436;2023-10-08T10:31:38;25.20;;;15.00;;
64641;SDS011;59936;51.490;5.436;2023-10-08T10:34:08;26.50;;;14.70;;
64641;SDS011;59936;51.490;5.436;2023-10-08T10:36:43;26.90;;;15.80;;
64641;SDS011;59936;51.490;5.436;2023-10-08T10:39:16;23.20;;;14.20;;
64641;SDS011;59936;51.490;5.436;2023-10-08T10:41:47;26.60;;;16.30;;
64641;SDS011;59936;51.490;5.436;2023-10-08T10:44:16;25.70;;;15.90;;
64641;SDS011;59936;51.490;5.436;2023-10-08T10:46:46;23.60;;;15.10;;
64641;SDS011;59936;51.490;5.436;2023-10-08T10:49:15;31.80;;;14.90;;
64641;SDS011;59936;51.490;5.436;2023-10-08T10:51:44;26.40;;;14.20;;
64641;SDS011;59936;51.490;5.436;2023-10-08T10:54:16;27.80;;;13.80;;
64641;SDS011;59936;51.490;5.436;2023-10-08T10:56:46;31.50;;;13.80;;
64641;SDS011;59936;51.490;5.436;2023-10-08T10:59:15;40.90;;;14.00;;
64641;SDS011;59936;51.490;5.436;2023-10-08T11:01:47;33.00;;;14.00;;
64641;SDS011;59936;51.490;5.436;2023-10-08T11:04:17;28.50;;;14.00;;
64641;SDS011;59936;51.490;5.436;2023-10-08T11:06:46;26.30;;;13.70;;
64641;SDS011;59936;51.490;5.436;2023-10-08T11:09:19;32.40;;;14.10;;
64641;SDS011;59936;51.490;5.436;2023-10-08T11:11:47;23.40;;;12.60;;
64641;SDS011;59936;51.490;5.436;2023-10-08T11:14:16;31.20;;;13.50;;
64641;SDS011;59936;51.490;5.436;2023-10-08T11:16:45;32.00;;;13.90;;
64641;SDS011;59936;51.490;5.436;2023-10-08T11:19:15;27.90;;;14.00;;
64641;SDS011;59936;51.490;5.436;2023-10-08T11:21:51;22.20;;;12.20;;
64641;SDS011;59936;51.490;5.436;2023-10-08T11:24:27;25.50;;;14.10;;
64641;SDS011;59936;51.490;5.436;2023-10-08T11:27:00;23.00;;;13.10;;
64641;SDS011;59936;51.490;5.436;2023-10-08T11:29:29;26.70;;;14.00;;
64641;SDS011;59936;51.490;5.436;2023-10-08T11:32:00;23.40;;;13.10;;
64641;SDS011;59936;51.490;5.436;2023-10-08T11:34:31;27.00;;;12.90;;
64641;SDS011;59936;51.490;5.436;2023-10-08T11:37:00;20.90;;;11.90;;
64641;SDS011;59936;51.490;5.436;2023-10-08T11:39:35;23.90;;;12.50;;
64641;SDS011;59936;51.490;5.436;2023-10-08T11:42:07;22.80;;;11.80;;
64641;SDS011;59936;51.490;5.436;2023-10-08T11:44:36;20.90;;;12.70;;
64641;SDS011;59936;51.490;5.436;2023-10-08T11:47:05;22.80;;;13.60;;
64641;SDS011;59936;51.490;5.436;2023-10-08T11:49:33;20.60;;;12.60;;
64641;SDS011;59936;51.490;5.436;2023-10-08T11:52:02;25.30;;;12.80;;
64641;SDS011;59936;51.490;5.436;2023-10-08T11:54:31;20.00;;;12.10;;
64641;SDS011;59936;51.490;5.436;2023-10-08T11:57:00;21.30;;;11.80;;
64641;SDS011;59936;51.490;5.436;2023-10-08T11:59:29;24.10;;;12.80;;
64641;SDS011;59936;51.490;5.436;2023-10-08T12:01:57;17.10;;;11.90;;
64641;SDS011;59936;51.490;5.436;2023-10-08T12:04:26;22.10;;;11.50;;
64641;SDS011;59936;51.490;5.436;2023-10-08T12:06:54;23.40;;;12.10;;
64641;SDS011;59936;51.490;5.436;2023-10-08T12:09:23;19.80;;;13.40;;
64641;SDS011;59936;51.490;5.436;2023-10-08T12:11:51;25.10;;;12.90;;
64641;SDS011;59936;51.490;5.436;2023-10-08T12:14:20;27.40;;;14.00;;
64641;SDS011;59936;51.490;5.436;2023-10-08T12:16:49;22.30;;;13.80;;
64641;SDS011;59936;51.490;5.436;2023-10-08T12:19:17;23.50;;;13.10;;
64641;SDS011;59936;51.490;5.436;2023-10-08T12:21:46;26.80;;;13.20;;
64641;SDS011;59936;51.490;5.436;2023-10-08T12:24:14;24.10;;;13.30;;
64641;SDS011;59936;51.490;5.436;2023-10-08T12:26:43;21.30;;;12.80;;
64641;SDS011;59936;51.490;5.436;2023-10-08T12:29:12;22.10;;;13.00;;
64641;SDS011;59936;51.490;5.436;2023-10-08T12:31:41;24.50;;;12.70;;
64641;SDS011;59936;51.490;5.436;2023-10-08T12:34:10;21.90;;;12.10;;
64641;SDS011;59936;51.490;5.436;2023-10-08T12:36:38;16.90;;;12.10;;
64641;SDS011;59936;51.490;5.436;2023-10-08T12:39:07;19.50;;;11.70;;
64641;SDS011;59936;51.490;5.436;2023-10-08T12:41:35;20.10;;;12.10;;
64641;SDS011;59936;51.490;5.436;2023-10-08T12:44:04;16.60;;;11.00;;
64641;SDS011;59936;51.490;5.436;2023-10-08T12:46:33;18.20;;;11.10;;
64641;SDS011;59936;51.490;5.436;2023-10-08T12:49:02;19.10;;;10.90;;
64641;SDS011;59936;51.490;5.436;2023-10-08T12:51:30;17.20;;;10.50;;
64641;SDS011;59936;51.490;5.436;2023-10-08T12:53:59;16.50;;;11.10;;
64641;SDS011;59936;51.490;5.436;2023-10-08T12:56:29;20.30;;;10.90;;
64641;SDS011;59936;51.490;5.436;2023-10-08T12:58:59;18.80;;;11.60;;
64641;SDS011;59936;51.490;5.436;2023-10-08T13:01:28;23.20;;;12.70;;
64641;SDS011;59936;51.490;5.436;2023-10-08T13:03:57;29.70;;;13.10;;
64641;SDS011;59936;51.490;5.436;2023-10-08T13:06:25;24.20;;;14.40;;
64641;SDS011;59936;51.490;5.436;2023-10-08T13:08:55;21.80;;;14.10;;
64641;SDS011;59936;51.490;5.436;2023-10-08T13:11:26;25.10;;;14.30;;
64641;SDS011;59936;51.490;5.436;2023-10-08T13:13:56;24.90;;;14.50;;
64641;SDS011;59936;51.490;5.436;2023-10-08T13:16:27;27.20;;;14.80;;
64641;SDS011;59936;51.490;5.436;2023-10-08T13:18:56;25.60;;;14.30;;
64641;SDS011;59936;51.490;5.436;2023-10-08T13:21:26;26.20;;;15.60;;
64641;SDS011;59936;51.490;5.436;2023-10-08T13:23:55;32.30;;;14.50;;
64641;SDS011;59936;51.490;5.436;2023-10-08T13:26:24;28.00;;;15.20;;
64641;SDS011;59936;51.490;5.436;2023-10-08T13:28:53;30.80;;;16.40;;
64641;SDS011;59936;51.490;5.436;2023-10-08T13:31:21;19.40;;;12.40;;
64641;SDS011;59936;51.490;5.436;2023-10-08T13:33:50;32.00;;;16.60;;
64641;SDS011;59936;51.490;5.436;2023-10-08T13:36:19;30.20;;;16.90;;
64641;SDS011;59936;51.490;5.436;2023-10-08T13:38:47;30.50;;;17.20;;
64641;SDS011;59936;51.490;5.436;2023-10-08T13:41:16;27.40;;;16.40;;
64641;SDS011;59936;51.490;5.436;2023-10-08T13:43:45;32.10;;;17.80;;
64641;SDS011;59936;51.490;5.436;2023-10-08T13:46:17;29.50;;;17.50;;
64641;SDS011;59936;51.490;5.436;2023-10-08T13:48:49;34.30;;;17.70;;
64641;SDS011;59936;51.490;5.436;2023-10-08T13:51:18;30.50;;;19.10;;
64641;SDS011;59936;51.490;5.436;2023-10-08T13:53:50;27.20;;;17.70;;
64641;SDS011;59936;51.490;5.436;2023-10-08T13:56:22;34.30;;;18.20;;
64641;SDS011;59936;51.490;5.436;2023-10-08T13:58:51;32.20;;;19.10;;
64641;SDS011;59936;51.490;5.436;2023-10-08T14:01:20;31.40;;;18.90;;
64641;SDS011;59936;51.490;5.436;2023-10-08T14:03:49;36.10;;;18.40;;
64641;SDS011;59936;51.490;5.436;2023-10-08T14:06:18;28.40;;;17.30;;
64641;SDS011;59936;51.490;5.436;2023-10-08T14:08:48;31.00;;;17.90;;
64641;SDS011;59936;51.490;5.436;2023-10-08T14:11:19;37.80;;;18.70;;
64641;SDS011;59936;51.490;5.436;2023-10-08T14:13:50;32.20;;;17.90;;
64641;SDS011;59936;51.490;5.436;2023-10-08T14:16:19;40.20;;;19.00;;
64641;SDS011;59936;51.490;5.436;2023-10-08T14:18:51;24.90;;;16.80;;
64641;SDS011;59936;51.490;5.436;2023-10-08T14:21:21;29.40;;;17.00;;
64641;SDS011;59936;51.490;5.436;2023-10-08T14:23:50;29.10;;;16.50;;
64641;SDS011;59936;51.490;5.436;2023-10-08T14:26:19;35.00;;;18.00;;
64641;SDS011;59936;51.490;5.436;2023-10-08T14:28:48;32.50;;;17.70;;
64641;SDS011;59936;51.490;5.436;2023-10-08T14:31:17;34.10;;;17.80;;
64641;SDS011;59936;51.490;5.436;2023-10-08T14:33:47;27.30;;;16.30;;
64641;SDS011;59936;51.490;5.436;2023-10-08T14:36:17;34.30;;;17.50;;
64641;SDS011;59936;51.490;5.436;2023-10-08T14:38:46;29.70;;;16.90;;
64641;SDS011;59936;51.490;5.436;2023-10-08T14:41:14;23.60;;;15.70;;
64641;SDS011;59936;51.490;5.436;2023-10-08T14:43:43;26.00;;;16.20;;
64641;SDS011;59936;51.490;5.436;2023-10-08T14:46:11;29.60;;;17.00;;
64641;SDS011;59936;51.490;5.436;2023-10-08T14:48:40;29.90;;;16.60;;
64641;SDS011;59936;51.490;5.436;2023-10-08T14:51:08;33.00;;;17.60;;
64641;SDS011;59936;51.490;5.436;2023-10-08T14:53:37;31.30;;;17.20;;